UPG weather

Hasanuddin International Airport
Ujung Pandang-Celebes Island, Sulawesi Selatan, Indonesia

Public forecast

Using degrees Celsius for public forecast. Weather courtesy of forecast.io.

METAR (pilot weather report)

Retrieved 2019/03/24 15:30 UTC (0 seconds ago):

WAAA 241530Z 12001KT 8000 FEW019 26/26 Q1011 NOSIG

TAF (pilot weather forecast)

Forecast is more than 6 hours old.

Retrieved 2019/03/24 06:51 UTC (9 hours ago):

TAF WAAA 240500Z 2406/2512 33010KT 9000 SCT019 PROB40 TEMPO 2408/2410 6000 -RA FEW017CB BECMG 2411/2413 11005KT 8000 BECMG 2421/2423 9999